Nearby METAR Reports

 

EGMC - Southend-On-Sea, United Kingdom
Distance from station: NE 10km
Updated: 28/03/2020 19:50
Few Clouds
Few Clouds
 Wind from N
Wind: N 12 mph , 19 km/h
Temperature: 5°C
Wind Chill: 1°C
Dew Point: 1°C
Humidity: 76%
Barometer: 1032 hPa
Clouds: Few Clouds
Visibility: 6 miles , 10 km
Cloud details: Few Clouds 1097 m
2020/03/28 19:50 EGMC 281950Z 36010KT 9999 FEW036 05/01 Q1032
EGLC - London City Airp, United Kingdom
Distance from station: W 37km
Updated: 28/03/2020 19:50
Clear
Clear
 Wind from NNE
Wind: NNE 10 mph , 17 km/h
Temperature: 7°C
Wind Chill: 4°C
Dew Point: -1°C
Humidity: 57%
Barometer: 1033 hPa
Clouds: Clear
Visibility: 6 miles , 10 km
2020/03/28 19:50 EGLC 281950Z AUTO 02009KT 310V110 9999 NCD 07/M01 Q1033
EGKB - Biggin Hill, United Kingdom
Distance from station: WSW 45km
Updated: 28/03/2020 19:50
Partly cloudy
Partly cloudy
 Wind from NNE
Wind: NNE 21 mph , 33 km/h
Temperature: 5°C
Wind Chill: 0°C
Dew Point: -1°C
Humidity: 66%
Barometer: 1032 hPa
Clouds: Partly cloudy
Visibility: 6 miles , 10 km
Cloud details: Partly cloudy 1372 m
2020/03/28 19:50 EGKB 281950Z 02018KT 9999 SCT045 05/M01 Q1032
 
EGSS - Stansted Airport, United Kingdom
Distance from station: NNW 48km
Updated: 28/03/2020 19:50
Clear
Clear
 Wind from N
Wind: N 13 mph , 20 km/h
Temperature: 4°C
Wind Chill: -1°C
Dew Point: -1°C
Humidity: 70%
Barometer: 1033 hPa
Clouds: Clear
Visibility: 6 miles , 10 km
2020/03/28 19:50 EGSS 281950Z AUTO 01011KT 9999 NCD 04/M01 Q1033
EGKK - London/Gatwick A, United Kingdom
Distance from station: SW 67km
Updated: 28/03/2020 19:50
Few Clouds
Few Clouds
 Wind from NNE
Wind: NNE 21 mph , 33 km/h
Temperature: 7°C
Wind Chill: 3°C
Dew Point: 0°C
Humidity: 61%
Barometer: 1031 hPa
Clouds: Few Clouds
Visibility: 6 miles , 10 km
Cloud details: Few Clouds 945 m
2020/03/28 19:50 EGKK 281950Z 03018KT 9999 FEW031 07/00 Q1031
EGMD - Lydd Airport, United Kingdom
Distance from station: SSE 67km
Updated: 28/03/2020 19:50
Mostly cloudy
Mostly cloudy
 Wind from varies
Wind: varies 0 mph , 0 km/h
Barometer: 1030 hPa
Clouds: Mostly cloudy
Visibility: 6 miles , 10 km
Cloud details: Partly cloudy 762 m
Mostly cloudy 914 m
2020/03/28 19:50 EGMD 281950Z AUTO /////KT 9999 SCT025/// BKN030/// ///// Q1030
 
EGWU - Northolt Raf, United Kingdom
Distance from station: W 69km
Updated: 28/03/2020 18:50
Partly cloudy
Partly cloudy
 Wind from NE
Wind: NE 18 mph , 30 km/h
Temperature: 7°C
Wind Chill: 3°C
Dew Point: 0°C
Humidity: 61%
Barometer: 1032 hPa
Clouds: Partly cloudy
Visibility: 6 miles , 10 km
Cloud details: Few Clouds 975 m
Partly cloudy 1372 m
2020/03/28 18:50 EGWU 281850Z 04016KT 9999 FEW032 SCT045 07/00 Q1032 NOSIG RMK BLU BLU
EGLL - London/Heathrow, United Kingdom
Distance from station: W 72km
Updated: 28/03/2020 19:50
Partly cloudy
Partly cloudy
 Wind from NE
Wind: NE 15 mph , 24 km/h
Temperature: 7°C
Wind Chill: 3°C
Dew Point: -2°C
Humidity: 53%
Barometer: 1033 hPa
Clouds: Partly cloudy
Visibility: 6 miles , 10 km
Cloud details: Partly cloudy 1372 m
2020/03/28 19:50 EGLL 281950Z AUTO 04013KT 360V100 9999 SCT045 07/M02 Q1033 NOSIG
EGUW - Wattisham Raf, United Kingdom
Distance from station: NNE 72km
Updated: 28/03/2020 18:50
Partly cloudy
Partly cloudy
 Wind from NNE
Wind: NNE 17 mph , 28 km/h
Temperature: 5°C
Wind Chill: 1°C
Dew Point: 0°C
Humidity: 70%
Barometer: 1031 hPa
Clouds: Partly cloudy
Visibility: 6 miles , 10 km
Cloud details: Few Clouds 884 m
Partly cloudy 1524 m
2020/03/28 18:50 EGUW 281850Z AUTO 02015KT 9999 FEW029/// SCT050/// 05/00 Q1031
 
EGGW - Luton Airport, United Kingdom
Distance from station: WNW 76km
Updated: 28/03/2020 19:50
Partly cloudy
Partly cloudy
 Wind from NNE
Wind: NNE 17 mph , 28 km/h
Temperature: 4°C
Wind Chill: -1°C
Dew Point: 0°C
Humidity: 75%
Barometer: 1033 hPa
Clouds: Partly cloudy
Visibility: 6 miles , 10 km
Cloud details: Few Clouds 823 m
Partly cloudy 1402 m
2020/03/28 19:50 EGGW 281950Z AUTO 02015KT 9999 FEW027 SCT046 04/00 Q1033
EGSC - Cambridge, United Kingdom
Distance from station: NNW 81km
Updated: 27/03/2020 17:50
NOT Current
Clear
Clear
 Wind from NNE
Wind: NNE 17 mph , 28 km/h
Temperature: 9°C
Wind Chill: 6°C
Dew Point: 0°C
Humidity: 54%
Barometer: 1024 hPa
Summary: Clear
Visibility: greater than 7 miles , 10 km
2020/03/27 17:50 EGSC 271750Z 03015KT CAVOK 09/M00 Q1024